sensor_id;sensor_type;location;lat;lon;timestamp;P1;durP1;ratioP1;P2;durP2;ratioP2
30010;SDS011;16851;53.564;8.112;2023-12-22T00:02:50;22.87;;;3.17;;
30010;SDS011;16851;53.564;8.112;2023-12-22T00:07:52;15.70;;;2.83;;
30010;SDS011;16851;53.564;8.112;2023-12-22T00:12:54;24.20;;;4.07;;
30010;SDS011;16851;53.564;8.112;2023-12-22T00:17:56;18.00;;;2.57;;
30010;SDS011;16851;53.564;8.112;2023-12-22T00:22:58;12.30;;;2.27;;
30010;SDS011;16851;53.564;8.112;2023-12-22T00:28:02;14.57;;;2.80;;
30010;SDS011;16851;53.564;8.112;2023-12-22T00:33:04;16.07;;;3.13;;
30010;SDS011;16851;53.564;8.112;2023-12-22T00:38:06;25.93;;;3.97;;
30010;SDS011;16851;53.564;8.112;2023-12-22T00:43:08;14.03;;;2.40;;
30010;SDS011;16851;53.564;8.112;2023-12-22T00:48:12;11.83;;;2.10;;
30010;SDS011;16851;53.564;8.112;2023-12-22T00:53:15;17.30;;;2.90;;
30010;SDS011;16851;53.564;8.112;2023-12-22T00:58:16;8.03;;;1.47;;
30010;SDS011;16851;53.564;8.112;2023-12-22T01:03:21;7.10;;;1.37;;
30010;SDS011;16851;53.564;8.112;2023-12-22T01:08:23;16.83;;;2.70;;
30010;SDS011;16851;53.564;8.112;2023-12-22T01:13:27;25.23;;;3.10;;
30010;SDS011;16851;53.564;8.112;2023-12-22T01:18:29;21.60;;;3.67;;
30010;SDS011;16851;53.564;8.112;2023-12-22T01:23:31;20.30;;;3.63;;
30010;SDS011;16851;53.564;8.112;2023-12-22T01:28:33;19.77;;;3.60;;
30010;SDS011;16851;53.564;8.112;2023-12-22T01:33:36;24.63;;;5.03;;
30010;SDS011;16851;53.564;8.112;2023-12-22T01:38:40;21.53;;;3.97;;
30010;SDS011;16851;53.564;8.112;2023-12-22T01:43:42;34.37;;;4.83;;
30010;SDS011;16851;53.564;8.112;2023-12-22T01:48:44;31.50;;;5.20;;
30010;SDS011;16851;53.564;8.112;2023-12-22T01:53:48;21.80;;;3.97;;
30010;SDS011;16851;53.564;8.112;2023-12-22T01:58:55;21.30;;;3.87;;
30010;SDS011;16851;53.564;8.112;2023-12-22T02:03:59;9.13;;;1.90;;
30010;SDS011;16851;53.564;8.112;2023-12-22T02:09:02;21.53;;;2.70;;
30010;SDS011;16851;53.564;8.112;2023-12-22T02:14:05;23.73;;;3.27;;
30010;SDS011;16851;53.564;8.112;2023-12-22T02:19:15;25.60;;;4.03;;
30010;SDS011;16851;53.564;8.112;2023-12-22T02:24:28;32.67;;;4.43;;
30010;SDS011;16851;53.564;8.112;2023-12-22T02:29:32;30.73;;;4.63;;
30010;SDS011;16851;53.564;8.112;2023-12-22T02:34:38;33.30;;;4.90;;
30010;SDS011;16851;53.564;8.112;2023-12-22T02:39:43;32.47;;;4.90;;
30010;SDS011;16851;53.564;8.112;2023-12-22T02:44:50;22.40;;;4.47;;
30010;SDS011;16851;53.564;8.112;2023-12-22T02:49:53;25.87;;;4.00;;
30010;SDS011;16851;53.564;8.112;2023-12-22T02:55:03;19.77;;;3.40;;
30010;SDS011;16851;53.564;8.112;2023-12-22T03:00:05;14.37;;;2.43;;
30010;SDS011;16851;53.564;8.112;2023-12-22T03:05:11;18.17;;;2.90;;
30010;SDS011;16851;53.564;8.112;2023-12-22T03:10:15;25.27;;;3.80;;
30010;SDS011;16851;53.564;8.112;2023-12-22T03:15:22;25.83;;;4.20;;
30010;SDS011;16851;53.564;8.112;2023-12-22T03:20:26;18.23;;;3.70;;
30010;SDS011;16851;53.564;8.112;2023-12-22T03:25:28;19.50;;;3.43;;
30010;SDS011;16851;53.564;8.112;2023-12-22T03:30:30;13.23;;;2.57;;
30010;SDS011;16851;53.564;8.112;2023-12-22T03:35:32;12.90;;;2.53;;
30010;SDS011;16851;53.564;8.112;2023-12-22T03:40:36;16.43;;;2.20;;
30010;SDS011;16851;53.564;8.112;2023-12-22T03:45:37;12.50;;;1.50;;
30010;SDS011;16851;53.564;8.112;2023-12-22T03:50:39;8.67;;;1.70;;
30010;SDS011;16851;53.564;8.112;2023-12-22T03:55:43;13.80;;;1.80;;
30010;SDS011;16851;53.564;8.112;2023-12-22T04:00:45;15.33;;;2.33;;
30010;SDS011;16851;53.564;8.112;2023-12-22T04:05:49;19.67;;;3.60;;
30010;SDS011;16851;53.564;8.112;2023-12-22T04:10:51;25.03;;;3.40;;
30010;SDS011;16851;53.564;8.112;2023-12-22T04:15:53;30.13;;;4.03;;
30010;SDS011;16851;53.564;8.112;2023-12-22T04:20:55;30.27;;;4.17;;
30010;SDS011;16851;53.564;8.112;2023-12-22T04:26:00;24.57;;;3.33;;
30010;SDS011;16851;53.564;8.112;2023-12-22T04:31:06;18.57;;;2.73;;
30010;SDS011;16851;53.564;8.112;2023-12-22T04:36:08;11.77;;;2.70;;
30010;SDS011;16851;53.564;8.112;2023-12-22T04:41:13;30.67;;;4.60;;
30010;SDS011;16851;53.564;8.112;2023-12-22T04:46:15;19.70;;;2.97;;
30010;SDS011;16851;53.564;8.112;2023-12-22T04:51:16;14.10;;;2.77;;
30010;SDS011;16851;53.564;8.112;2023-12-22T04:56:21;21.93;;;3.33;;
30010;SDS011;16851;53.564;8.112;2023-12-22T05:01:27;21.20;;;3.13;;
30010;SDS011;16851;53.564;8.112;2023-12-22T05:06:29;21.97;;;3.80;;
30010;SDS011;16851;53.564;8.112;2023-12-22T05:11:31;23.37;;;3.70;;
30010;SDS011;16851;53.564;8.112;2023-12-22T05:16:33;25.70;;;4.00;;
30010;SDS011;16851;53.564;8.112;2023-12-22T05:21:37;22.90;;;3.93;;
30010;SDS011;16851;53.564;8.112;2023-12-22T05:26:42;32.63;;;4.53;;
30010;SDS011;16851;53.564;8.112;2023-12-22T05:31:46;21.67;;;3.80;;
30010;SDS011;16851;53.564;8.112;2023-12-22T05:36:48;17.83;;;3.87;;
30010;SDS011;16851;53.564;8.112;2023-12-22T05:41:50;14.43;;;2.60;;
30010;SDS011;16851;53.564;8.112;2023-12-22T05:46:52;20.43;;;2.20;;
30010;SDS011;16851;53.564;8.112;2023-12-22T05:51:56;17.97;;;2.93;;
30010;SDS011;16851;53.564;8.112;2023-12-22T05:57:03;9.60;;;2.27;;
30010;SDS011;16851;53.564;8.112;2023-12-22T06:02:06;21.07;;;3.90;;
30010;SDS011;16851;53.564;8.112;2023-12-22T06:07:12;23.47;;;3.60;;
30010;SDS011;16851;53.564;8.112;2023-12-22T06:12:14;28.80;;;3.80;;
30010;SDS011;16851;53.564;8.112;2023-12-22T06:17:21;25.70;;;4.20;;
30010;SDS011;16851;53.564;8.112;2023-12-22T06:22:23;29.70;;;3.80;;
30010;SDS011;16851;53.564;8.112;2023-12-22T06:27:25;23.83;;;4.10;;
30010;SDS011;16851;53.564;8.112;2023-12-22T06:32:27;24.40;;;3.90;;
30010;SDS011;16851;53.564;8.112;2023-12-22T06:37:29;26.00;;;4.20;;
30010;SDS011;16851;53.564;8.112;2023-12-22T06:42:31;20.80;;;3.57;;
30010;SDS011;16851;53.564;8.112;2023-12-22T06:47:33;28.70;;;3.93;;
30010;SDS011;16851;53.564;8.112;2023-12-22T06:52:35;26.10;;;4.20;;
30010;SDS011;16851;53.564;8.112;2023-12-22T06:57:37;34.50;;;6.07;;
30010;SDS011;16851;53.564;8.112;2023-12-22T07:02:42;22.97;;;4.30;;
30010;SDS011;16851;53.564;8.112;2023-12-22T07:07:44;36.93;;;4.70;;
30010;SDS011;16851;53.564;8.112;2023-12-22T07:12:46;22.63;;;4.70;;
30010;SDS011;16851;53.564;8.112;2023-12-22T07:17:51;26.57;;;5.47;;
30010;SDS011;16851;53.564;8.112;2023-12-22T07:22:55;33.37;;;5.70;;
30010;SDS011;16851;53.564;8.112;2023-12-22T07:27:58;45.27;;;6.90;;
30010;SDS011;16851;53.564;8.112;2023-12-22T07:33:05;30.73;;;4.50;;
30010;SDS011;16851;53.564;8.112;2023-12-22T07:38:17;28.57;;;4.67;;
30010;SDS011;16851;53.564;8.112;2023-12-22T07:43:19;31.40;;;6.25;;
30010;SDS011;16851;53.564;8.112;2023-12-22T07:48:21;24.43;;;4.40;;
30010;SDS011;16851;53.564;8.112;2023-12-22T07:53:31;34.70;;;4.73;;
30010;SDS011;16851;53.564;8.112;2023-12-22T07:58:33;27.40;;;4.27;;
30010;SDS011;16851;53.564;8.112;2023-12-22T08:03:37;24.97;;;4.30;;
30010;SDS011;16851;53.564;8.112;2023-12-22T08:08:39;26.50;;;4.37;;
30010;SDS011;16851;53.564;8.112;2023-12-22T08:13:41;33.27;;;5.63;;
30010;SDS011;16851;53.564;8.112;2023-12-22T08:18:45;35.20;;;5.50;;
30010;SDS011;16851;53.564;8.112;2023-12-22T08:23:49;31.73;;;6.00;;
30010;SDS011;16851;53.564;8.112;2023-12-22T08:28:59;42.97;;;4.10;;
30010;SDS011;16851;53.564;8.112;2023-12-22T08:34:03;15.93;;;2.80;;
30010;SDS011;16851;53.564;8.112;2023-12-22T08:39:09;15.33;;;2.07;;
30010;SDS011;16851;53.564;8.112;2023-12-22T08:44:14;13.50;;;2.13;;
30010;SDS011;16851;53.564;8.112;2023-12-22T08:49:16;7.63;;;1.37;;
30010;SDS011;16851;53.564;8.112;2023-12-22T08:54:20;11.20;;;1.97;;
30010;SDS011;16851;53.564;8.112;2023-12-22T08:59:25;10.03;;;1.30;;
30010;SDS011;16851;53.564;8.112;2023-12-22T09:04:27;12.87;;;2.13;;
30010;SDS011;16851;53.564;8.112;2023-12-22T09:09:29;16.13;;;2.40;;
30010;SDS011;16851;53.564;8.112;2023-12-22T09:14:31;17.10;;;2.73;;
30010;SDS011;16851;53.564;8.112;2023-12-22T09:19:33;14.30;;;2.40;;
30010;SDS011;16851;53.564;8.112;2023-12-22T09:24:38;18.93;;;2.17;;
30010;SDS011;16851;53.564;8.112;2023-12-22T09:29:40;9.57;;;1.77;;
30010;SDS011;16851;53.564;8.112;2023-12-22T09:34:47;12.40;;;1.80;;
30010;SDS011;16851;53.564;8.112;2023-12-22T09:39:49;20.40;;;1.90;;
30010;SDS011;16851;53.564;8.112;2023-12-22T09:44:53;8.77;;;1.60;;
30010;SDS011;16851;53.564;8.112;2023-12-22T09:49:58;15.20;;;2.30;;
30010;SDS011;16851;53.564;8.112;2023-12-22T09:55:01;21.00;;;2.97;;
30010;SDS011;16851;53.564;8.112;2023-12-22T10:00:04;11.60;;;2.23;;
30010;SDS011;16851;53.564;8.112;2023-12-22T10:05:11;27.00;;;3.37;;
30010;SDS011;16851;53.564;8.112;2023-12-22T10:10:16;4.50;;;1.33;;
30010;SDS011;16851;53.564;8.112;2023-12-22T10:15:19;15.67;;;2.83;;
30010;SDS011;16851;53.564;8.112;2023-12-22T10:20:27;15.83;;;2.57;;
30010;SDS011;16851;53.564;8.112;2023-12-22T10:25:30;16.83;;;2.17;;
30010;SDS011;16851;53.564;8.112;2023-12-22T10:30:32;20.67;;;3.23;;
30010;SDS011;16851;53.564;8.112;2023-12-22T10:35:34;13.47;;;3.10;;
30010;SDS011;16851;53.564;8.112;2023-12-22T10:40:39;23.60;;;2.93;;
30010;SDS011;16851;53.564;8.112;2023-12-22T10:45:41;25.07;;;4.13;;
30010;SDS011;16851;53.564;8.112;2023-12-22T10:50:46;17.50;;;3.17;;
30010;SDS011;16851;53.564;8.112;2023-12-22T10:55:49;26.37;;;3.53;;
30010;SDS011;16851;53.564;8.112;2023-12-22T11:00:53;17.50;;;2.83;;
30010;SDS011;16851;53.564;8.112;2023-12-22T11:05:58;26.83;;;3.20;;
30010;SDS011;16851;53.564;8.112;2023-12-22T11:11:02;31.23;;;3.60;;
30010;SDS011;16851;53.564;8.112;2023-12-22T11:16:12;35.17;;;3.73;;
30010;SDS011;16851;53.564;8.112;2023-12-22T11:21:14;27.03;;;4.03;;
30010;SDS011;16851;53.564;8.112;2023-12-22T11:26:17;20.43;;;3.43;;
30010;SDS011;16851;53.564;8.112;2023-12-22T11:31:20;13.93;;;2.60;;
30010;SDS011;16851;53.564;8.112;2023-12-22T11:36:27;14.80;;;2.47;;
30010;SDS011;16851;53.564;8.112;2023-12-22T11:41:32;14.80;;;2.93;;
30010;SDS011;16851;53.564;8.112;2023-12-22T11:46:35;13.97;;;2.27;;
30010;SDS011;16851;53.564;8.112;2023-12-22T11:51:40;14.67;;;2.80;;
30010;SDS011;16851;53.564;8.112;2023-12-22T11:56:42;19.87;;;3.50;;
30010;SDS011;16851;53.564;8.112;2023-12-22T12:01:54;20.73;;;3.17;;
30010;SDS011;16851;53.564;8.112;2023-12-22T12:06:56;16.50;;;3.07;;
30010;SDS011;16851;53.564;8.112;2023-12-22T12:17:06;18.73;;;3.30;;
30010;SDS011;16851;53.564;8.112;2023-12-22T12:22:17;19.97;;;3.37;;
30010;SDS011;16851;53.564;8.112;2023-12-22T12:27:21;17.20;;;3.17;;
30010;SDS011;16851;53.564;8.112;2023-12-22T12:32:23;12.50;;;2.53;;
30010;SDS011;16851;53.564;8.112;2023-12-22T12:37:27;15.20;;;3.20;;
30010;SDS011;16851;53.564;8.112;2023-12-22T12:42:29;16.40;;;2.37;;
30010;SDS011;16851;53.564;8.112;2023-12-22T12:47:32;11.17;;;2.63;;
30010;SDS011;16851;53.564;8.112;2023-12-22T12:52:35;16.60;;;2.50;;
30010;SDS011;16851;53.564;8.112;2023-12-22T12:57:37;12.83;;;2.10;;
30010;SDS011;16851;53.564;8.112;2023-12-22T13:02:43;10.77;;;1.80;;
30010;SDS011;16851;53.564;8.112;2023-12-22T13:07:45;10.07;;;1.50;;
30010;SDS011;16851;53.564;8.112;2023-12-22T13:12:48;8.57;;;1.60;;
30010;SDS011;16851;53.564;8.112;2023-12-22T13:17:54;10.73;;;2.70;;
30010;SDS011;16851;53.564;8.112;2023-12-22T13:22:56;10.47;;;2.17;;
30010;SDS011;16851;53.564;8.112;2023-12-22T13:28:01;11.13;;;2.00;;
30010;SDS011;16851;53.564;8.112;2023-12-22T13:33:03;9.70;;;2.07;;
30010;SDS011;16851;53.564;8.112;2023-12-22T13:38:05;14.70;;;1.73;;
30010;SDS011;16851;53.564;8.112;2023-12-22T13:43:09;7.37;;;1.57;;
30010;SDS011;16851;53.564;8.112;2023-12-22T13:48:15;17.13;;;3.10;;
30010;SDS011;16851;53.564;8.112;2023-12-22T13:53:20;5.27;;;1.40;;
30010;SDS011;16851;53.564;8.112;2023-12-22T13:58:22;13.43;;;1.97;;
30010;SDS011;16851;53.564;8.112;2023-12-22T14:03:26;9.57;;;1.60;;
30010;SDS011;16851;53.564;8.112;2023-12-22T14:08:30;8.87;;;1.50;;
30010;SDS011;16851;53.564;8.112;2023-12-22T14:13:35;8.85;;;2.33;;
30010;SDS011;16851;53.564;8.112;2023-12-22T14:18:42;23.80;;;2.93;;
30010;SDS011;16851;53.564;8.112;2023-12-22T14:23:48;14.67;;;2.23;;
30010;SDS011;16851;53.564;8.112;2023-12-22T14:28:51;9.90;;;1.87;;
30010;SDS011;16851;53.564;8.112;2023-12-22T14:33:56;13.47;;;2.10;;
30010;SDS011;16851;53.564;8.112;2023-12-22T14:39:00;16.97;;;2.33;;
30010;SDS011;16851;53.564;8.112;2023-12-22T14:44:02;14.13;;;2.27;;
30010;SDS011;16851;53.564;8.112;2023-12-22T14:49:04;11.30;;;2.23;;
30010;SDS011;16851;53.564;8.112;2023-12-22T14:54:06;12.83;;;2.30;;
30010;SDS011;16851;53.564;8.112;2023-12-22T14:59:08;19.87;;;2.47;;
30010;SDS011;16851;53.564;8.112;2023-12-22T15:04:14;13.37;;;2.23;;
30010;SDS011;16851;53.564;8.112;2023-12-22T15:09:18;13.50;;;2.10;;
30010;SDS011;16851;53.564;8.112;2023-12-22T15:14:20;17.53;;;2.63;;
30010;SDS011;16851;53.564;8.112;2023-12-22T15:19:23;20.80;;;3.50;;
30010;SDS011;16851;53.564;8.112;2023-12-22T15:24:27;15.23;;;2.40;;
30010;SDS011;16851;53.564;8.112;2023-12-22T15:29:32;13.63;;;2.30;;
30010;SDS011;16851;53.564;8.112;2023-12-22T15:34:34;20.07;;;1.97;;
30010;SDS011;16851;53.564;8.112;2023-12-22T15:39:36;17.53;;;2.23;;
30010;SDS011;16851;53.564;8.112;2023-12-22T15:44:43;14.35;;;2.40;;
30010;SDS011;16851;53.564;8.112;2023-12-22T15:49:45;7.90;;;1.33;;
30010;SDS011;16851;53.564;8.112;2023-12-22T15:54:52;9.67;;;1.50;;
30010;SDS011;16851;53.564;8.112;2023-12-22T15:59:56;11.40;;;1.47;;
30010;SDS011;16851;53.564;8.112;2023-12-22T16:04:58;9.37;;;1.60;;
30010;SDS011;16851;53.564;8.112;2023-12-22T16:10:00;9.40;;;1.33;;
30010;SDS011;16851;53.564;8.112;2023-12-22T16:15:02;11.23;;;1.77;;
30010;SDS011;16851;53.564;8.112;2023-12-22T16:20:05;12.07;;;2.37;;
30010;SDS011;16851;53.564;8.112;2023-12-22T16:25:11;9.00;;;1.60;;
30010;SDS011;16851;53.564;8.112;2023-12-22T16:30:13;12.53;;;1.57;;
30010;SDS011;16851;53.564;8.112;2023-12-22T16:35:15;7.67;;;1.13;;
30010;SDS011;16851;53.564;8.112;2023-12-22T16:40:17;9.10;;;1.33;;
30010;SDS011;16851;53.564;8.112;2023-12-22T16:45:19;10.60;;;1.23;;
30010;SDS011;16851;53.564;8.112;2023-12-22T16:50:21;12.57;;;1.80;;
30010;SDS011;16851;53.564;8.112;2023-12-22T16:55:23;8.90;;;1.87;;
30010;SDS011;16851;53.564;8.112;2023-12-22T17:00:27;6.10;;;1.33;;
30010;SDS011;16851;53.564;8.112;2023-12-22T17:05:29;10.43;;;1.60;;
30010;SDS011;16851;53.564;8.112;2023-12-22T17:10:37;15.33;;;2.10;;
30010;SDS011;16851;53.564;8.112;2023-12-22T17:15:39;10.03;;;1.73;;
30010;SDS011;16851;53.564;8.112;2023-12-22T17:20:41;16.23;;;2.53;;
30010;SDS011;16851;53.564;8.112;2023-12-22T17:25:44;13.65;;;2.58;;
30010;SDS011;16851;53.564;8.112;2023-12-22T17:30:56;13.50;;;2.33;;
30010;SDS011;16851;53.564;8.112;2023-12-22T17:35:58;11.87;;;1.97;;
30010;SDS011;16851;53.564;8.112;2023-12-22T17:41:05;13.00;;;1.93;;
30010;SDS011;16851;53.564;8.112;2023-12-22T17:46:07;14.13;;;2.13;;
30010;SDS011;16851;53.564;8.112;2023-12-22T17:51:09;15.33;;;1.80;;
30010;SDS011;16851;53.564;8.112;2023-12-22T17:56:13;11.47;;;1.57;;
30010;SDS011;16851;53.564;8.112;2023-12-22T18:01:18;8.43;;;1.73;;
30010;SDS011;16851;53.564;8.112;2023-12-22T18:06:23;9.60;;;1.77;;
30010;SDS011;16851;53.564;8.112;2023-12-22T18:11:27;12.10;;;2.30;;
30010;SDS011;16851;53.564;8.112;2023-12-22T18:16:37;8.97;;;1.53;;
30010;SDS011;16851;53.564;8.112;2023-12-22T18:21:41;10.10;;;1.53;;
30010;SDS011;16851;53.564;8.112;2023-12-22T18:26:46;7.90;;;1.35;;
30010;SDS011;16851;53.564;8.112;2023-12-22T18:31:48;4.93;;;1.20;;
30010;SDS011;16851;53.564;8.112;2023-12-22T18:36:52;12.40;;;1.70;;
30010;SDS011;16851;53.564;8.112;2023-12-22T18:41:54;5.93;;;1.30;;
30010;SDS011;16851;53.564;8.112;2023-12-22T18:46:59;10.33;;;1.80;;
30010;SDS011;16851;53.564;8.112;2023-12-22T18:52:03;16.77;;;2.50;;
30010;SDS011;16851;53.564;8.112;2023-12-22T18:57:06;12.30;;;2.13;;
30010;SDS011;16851;53.564;8.112;2023-12-22T19:02:11;13.97;;;1.93;;
30010;SDS011;16851;53.564;8.112;2023-12-22T19:07:33;20.80;;;2.23;;
30010;SDS011;16851;53.564;8.112;2023-12-22T19:12:37;17.87;;;2.47;;
30010;SDS011;16851;53.564;8.112;2023-12-22T19:17:43;18.80;;;2.95;;
30010;SDS011;16851;53.564;8.112;2023-12-22T19:22:45;20.63;;;2.80;;
30010;SDS011;16851;53.564;8.112;2023-12-22T19:27:49;17.43;;;3.03;;
30010;SDS011;16851;53.564;8.112;2023-12-22T19:32:54;14.10;;;2.47;;
30010;SDS011;16851;53.564;8.112;2023-12-22T19:37:58;16.20;;;2.47;;
30010;SDS011;16851;53.564;8.112;2023-12-22T19:43:03;19.03;;;3.17;;
30010;SDS011;16851;53.564;8.112;2023-12-22T19:48:05;15.37;;;2.47;;
30010;SDS011;16851;53.564;8.112;2023-12-22T19:53:12;11.70;;;2.40;;
30010;SDS011;16851;53.564;8.112;2023-12-22T19:58:16;17.93;;;2.30;;
30010;SDS011;16851;53.564;8.112;2023-12-22T20:03:19;16.23;;;2.50;;
30010;SDS011;16851;53.564;8.112;2023-12-22T20:08:23;22.60;;;3.30;;
30010;SDS011;16851;53.564;8.112;2023-12-22T20:13:29;29.97;;;4.00;;
30010;SDS011;16851;53.564;8.112;2023-12-22T20:18:33;21.57;;;3.73;;
30010;SDS011;16851;53.564;8.112;2023-12-22T20:23:36;19.60;;;3.10;;
30010;SDS011;16851;53.564;8.112;2023-12-22T20:28:42;20.03;;;3.70;;
30010;SDS011;16851;53.564;8.112;2023-12-22T20:33:44;16.93;;;3.40;;
30010;SDS011;16851;53.564;8.112;2023-12-22T20:38:49;9.60;;;1.70;;
30010;SDS011;16851;53.564;8.112;2023-12-22T20:43:51;21.13;;;3.60;;
30010;SDS011;16851;53.564;8.112;2023-12-22T20:48:53;17.77;;;2.80;;
30010;SDS011;16851;53.564;8.112;2023-12-22T20:53:55;20.93;;;3.00;;
30010;SDS011;16851;53.564;8.112;2023-12-22T20:59:00;8.57;;;2.13;;
30010;SDS011;16851;53.564;8.112;2023-12-22T21:04:04;18.70;;;3.57;;
30010;SDS011;16851;53.564;8.112;2023-12-22T21:09:06;22.63;;;3.97;;
30010;SDS011;16851;53.564;8.112;2023-12-22T21:14:10;23.50;;;3.57;;
30010;SDS011;16851;53.564;8.112;2023-12-22T21:19:12;23.13;;;4.23;;
30010;SDS011;16851;53.564;8.112;2023-12-22T21:24:16;21.20;;;4.10;;
30010;SDS011;16851;53.564;8.112;2023-12-22T21:29:18;23.57;;;3.40;;
30010;SDS011;16851;53.564;8.112;2023-12-22T21:34:20;31.53;;;4.00;;
30010;SDS011;16851;53.564;8.112;2023-12-22T21:39:24;27.30;;;3.83;;
30010;SDS011;16851;53.564;8.112;2023-12-22T21:44:31;24.73;;;3.23;;
30010;SDS011;16851;53.564;8.112;2023-12-22T21:49:34;21.77;;;2.80;;
30010;SDS011;16851;53.564;8.112;2023-12-22T21:54:40;23.37;;;3.13;;
30010;SDS011;16851;53.564;8.112;2023-12-22T21:59:44;13.23;;;2.50;;
30010;SDS011;16851;53.564;8.112;2023-12-22T22:04:47;17.23;;;2.90;;
30010;SDS011;16851;53.564;8.112;2023-12-22T22:09:54;15.27;;;2.13;;
30010;SDS011;16851;53.564;8.112;2023-12-22T22:15:01;10.90;;;2.67;;
30010;SDS011;16851;53.564;8.112;2023-12-22T22:20:04;15.67;;;2.50;;
30010;SDS011;16851;53.564;8.112;2023-12-22T22:25:10;14.87;;;3.00;;
30010;SDS011;16851;53.564;8.112;2023-12-22T22:30:15;21.90;;;3.50;;
30010;SDS011;16851;53.564;8.112;2023-12-22T22:35:16;24.03;;;3.30;;
30010;SDS011;16851;53.564;8.112;2023-12-22T22:40:18;12.57;;;2.63;;
30010;SDS011;16851;53.564;8.112;2023-12-22T22:45:23;18.53;;;2.50;;
30010;SDS011;16851;53.564;8.112;2023-12-22T22:50:24;19.77;;;2.77;;
30010;SDS011;16851;53.564;8.112;2023-12-22T22:55:26;16.70;;;2.43;;
30010;SDS011;16851;53.564;8.112;2023-12-22T23:00:31;20.63;;;3.10;;
30010;SDS011;16851;53.564;8.112;2023-12-22T23:05:34;16.83;;;2.40;;
30010;SDS011;16851;53.564;8.112;2023-12-22T23:10:37;12.20;;;2.33;;
30010;SDS011;16851;53.564;8.112;2023-12-22T23:15:39;19.17;;;2.57;;
30010;SDS011;16851;53.564;8.112;2023-12-22T23:20:41;15.87;;;2.20;;
30010;SDS011;16851;53.564;8.112;2023-12-22T23:25:42;8.87;;;1.73;;
30010;SDS011;16851;53.564;8.112;2023-12-22T23:30:49;17.73;;;2.10;;
30010;SDS011;16851;53.564;8.112;2023-12-22T23:35:51;14.97;;;2.50;;
30010;SDS011;16851;53.564;8.112;2023-12-22T23:40:53;17.23;;;2.10;;
30010;SDS011;16851;53.564;8.112;2023-12-22T23:45:55;20.43;;;2.80;;
30010;SDS011;16851;53.564;8.112;2023-12-22T23:51:01;16.60;;;3.50;;
30010;SDS011;16851;53.564;8.112;2023-12-22T23:56:06;24.83;;;2.97;;
